sensor_id;sensor_type;location;lat;lon;timestamp;P1;durP1;ratioP1;P2;durP2;ratioP2
21890;SDS011;11110;52.386;16.940;2023-04-21T00:01:00;25.90;;;12.95;;
21890;SDS011;11110;52.386;16.940;2023-04-21T00:03:29;29.15;;;13.63;;
21890;SDS011;11110;52.386;16.940;2023-04-21T00:06:01;24.85;;;13.13;;
21890;SDS011;11110;52.386;16.940;2023-04-21T00:08:31;42.17;;;15.43;;
21890;SDS011;11110;52.386;16.940;2023-04-21T00:11:06;25.17;;;12.90;;
21890;SDS011;11110;52.386;16.940;2023-04-21T00:13:34;27.55;;;12.90;;
21890;SDS011;11110;52.386;16.940;2023-04-21T00:16:03;31.27;;;13.75;;
21890;SDS011;11110;52.386;16.940;2023-04-21T00:18:32;27.83;;;13.10;;
21890;SDS011;11110;52.386;16.940;2023-04-21T00:21:03;28.75;;;13.23;;
21890;SDS011;11110;52.386;16.940;2023-04-21T00:23:31;28.43;;;13.27;;
21890;SDS011;11110;52.386;16.940;2023-04-21T00:26:00;29.77;;;13.37;;
21890;SDS011;11110;52.386;16.940;2023-04-21T00:28:28;22.25;;;12.65;;
21890;SDS011;11110;52.386;16.940;2023-04-21T00:30:58;31.88;;;13.35;;
21890;SDS011;11110;52.386;16.940;2023-04-21T00:33:26;29.55;;;13.85;;
21890;SDS011;11110;52.386;16.940;2023-04-21T00:35:55;27.48;;;12.80;;
21890;SDS011;11110;52.386;16.940;2023-04-21T00:38:27;29.73;;;13.43;;
21890;SDS011;11110;52.386;16.940;2023-04-21T00:40:56;33.70;;;14.00;;
21890;SDS011;11110;52.386;16.940;2023-04-21T00:43:24;29.97;;;13.30;;
21890;SDS011;11110;52.386;16.940;2023-04-21T00:45:53;29.30;;;13.80;;
21890;SDS011;11110;52.386;16.940;2023-04-21T00:48:21;28.03;;;13.03;;
21890;SDS011;11110;52.386;16.940;2023-04-21T00:50:50;26.20;;;12.40;;
21890;SDS011;11110;52.386;16.940;2023-04-21T00:53:19;28.60;;;13.10;;
21890;SDS011;11110;52.386;16.940;2023-04-21T00:55:51;33.50;;;13.50;;
21890;SDS011;11110;52.386;16.940;2023-04-21T00:58:19;30.70;;;13.43;;
21890;SDS011;11110;52.386;16.940;2023-04-21T01:00:48;30.83;;;13.77;;
21890;SDS011;11110;52.386;16.940;2023-04-21T01:03:16;32.50;;;14.20;;
21890;SDS011;11110;52.386;16.940;2023-04-21T01:05:45;28.10;;;12.53;;
21890;SDS011;11110;52.386;16.940;2023-04-21T01:08:14;30.90;;;13.47;;
21890;SDS011;11110;52.386;16.940;2023-04-21T01:10:42;34.33;;;13.43;;
21890;SDS011;11110;52.386;16.940;2023-04-21T01:13:12;33.07;;;14.43;;
21890;SDS011;11110;52.386;16.940;2023-04-21T01:15:41;28.17;;;12.53;;
21890;SDS011;11110;52.386;16.940;2023-04-21T01:18:09;33.13;;;13.80;;
21890;SDS011;11110;52.386;16.940;2023-04-21T01:20:39;31.53;;;12.63;;
21890;SDS011;11110;52.386;16.940;2023-04-21T01:23:09;30.83;;;13.20;;
21890;SDS011;11110;52.386;16.940;2023-04-21T01:25:37;33.10;;;13.67;;
21890;SDS011;11110;52.386;16.940;2023-04-21T01:28:05;28.40;;;13.82;;
21890;SDS011;11110;52.386;16.940;2023-04-21T01:30:34;27.43;;;13.67;;
21890;SDS011;11110;52.386;16.940;2023-04-21T01:33:02;30.03;;;13.87;;
21890;SDS011;11110;52.386;16.940;2023-04-21T01:35:31;27.47;;;13.77;;
21890;SDS011;11110;52.386;16.940;2023-04-21T01:37:59;30.33;;;13.50;;
21890;SDS011;11110;52.386;16.940;2023-04-21T01:40:29;28.70;;;13.60;;
21890;SDS011;11110;52.386;16.940;2023-04-21T01:43:00;34.27;;;21.27;;
21890;SDS011;11110;52.386;16.940;2023-04-21T01:45:29;26.73;;;13.63;;
21890;SDS011;11110;52.386;16.940;2023-04-21T01:47:58;27.70;;;13.13;;
21890;SDS011;11110;52.386;16.940;2023-04-21T01:50:27;31.73;;;14.20;;
21890;SDS011;11110;52.386;16.940;2023-04-21T01:52:55;39.63;;;14.90;;
21890;SDS011;11110;52.386;16.940;2023-04-21T01:55:24;30.83;;;13.32;;
21890;SDS011;11110;52.386;16.940;2023-04-21T01:57:53;35.57;;;13.13;;
21890;SDS011;11110;52.386;16.940;2023-04-21T02:00:23;30.87;;;13.40;;
21890;SDS011;11110;52.386;16.940;2023-04-21T02:02:52;32.13;;;13.73;;
21890;SDS011;11110;52.386;16.940;2023-04-21T02:05:21;27.17;;;13.40;;
21890;SDS011;11110;52.386;16.940;2023-04-21T02:07:49;30.47;;;14.70;;
21890;SDS011;11110;52.386;16.940;2023-04-21T02:10:17;25.33;;;12.27;;
21890;SDS011;11110;52.386;16.940;2023-04-21T02:12:46;29.33;;;13.77;;
21890;SDS011;11110;52.386;16.940;2023-04-21T02:15:16;30.03;;;13.23;;
21890;SDS011;11110;52.386;16.940;2023-04-21T02:17:44;26.73;;;12.90;;
21890;SDS011;11110;52.386;16.940;2023-04-21T02:20:13;28.17;;;13.00;;
21890;SDS011;11110;52.386;16.940;2023-04-21T02:22:41;33.03;;;13.77;;
21890;SDS011;11110;52.386;16.940;2023-04-21T02:25:10;27.00;;;13.43;;
21890;SDS011;11110;52.386;16.940;2023-04-21T02:27:39;29.30;;;13.30;;
21890;SDS011;11110;52.386;16.940;2023-04-21T02:30:07;35.77;;;15.33;;
21890;SDS011;11110;52.386;16.940;2023-04-21T02:32:38;31.03;;;13.83;;
21890;SDS011;11110;52.386;16.940;2023-04-21T02:35:07;27.33;;;13.83;;
21890;SDS011;11110;52.386;16.940;2023-04-21T02:37:36;36.47;;;14.67;;
21890;SDS011;11110;52.386;16.940;2023-04-21T02:40:05;30.33;;;12.97;;
21890;SDS011;11110;52.386;16.940;2023-04-21T02:42:34;27.57;;;13.20;;
21890;SDS011;11110;52.386;16.940;2023-04-21T02:45:03;33.07;;;13.73;;
21890;SDS011;11110;52.386;16.940;2023-04-21T02:47:34;25.40;;;13.50;;
21890;SDS011;11110;52.386;16.940;2023-04-21T02:50:05;29.13;;;14.13;;
21890;SDS011;11110;52.386;16.940;2023-04-21T02:52:34;37.23;;;13.90;;
21890;SDS011;11110;52.386;16.940;2023-04-21T02:55:04;25.90;;;12.87;;
21890;SDS011;11110;52.386;16.940;2023-04-21T02:57:32;27.83;;;12.33;;
21890;SDS011;11110;52.386;16.940;2023-04-21T03:00:01;30.93;;;13.47;;
21890;SDS011;11110;52.386;16.940;2023-04-21T03:02:30;28.27;;;13.13;;
21890;SDS011;11110;52.386;16.940;2023-04-21T03:04:59;28.60;;;13.73;;
21890;SDS011;11110;52.386;16.940;2023-04-21T03:07:30;32.50;;;13.93;;
21890;SDS011;11110;52.386;16.940;2023-04-21T03:09:59;24.50;;;12.43;;
21890;SDS011;11110;52.386;16.940;2023-04-21T03:12:27;29.40;;;13.20;;
21890;SDS011;11110;52.386;16.940;2023-04-21T03:14:57;26.33;;;12.40;;
21890;SDS011;11110;52.386;16.940;2023-04-21T03:17:26;22.77;;;11.90;;
21890;SDS011;11110;52.386;16.940;2023-04-21T03:19:57;28.57;;;13.40;;
21890;SDS011;11110;52.386;16.940;2023-04-21T03:22:25;33.47;;;14.03;;
21890;SDS011;11110;52.386;16.940;2023-04-21T03:24:55;25.97;;;13.87;;
21890;SDS011;11110;52.386;16.940;2023-04-21T03:27:23;30.70;;;13.50;;
21890;SDS011;11110;52.386;16.940;2023-04-21T03:29:52;22.87;;;12.57;;
21890;SDS011;11110;52.386;16.940;2023-04-21T03:32:20;28.60;;;13.37;;
21890;SDS011;11110;52.386;16.940;2023-04-21T03:34:49;28.60;;;13.90;;
21890;SDS011;11110;52.386;16.940;2023-04-21T03:37:18;26.50;;;12.10;;
21890;SDS011;11110;52.386;16.940;2023-04-21T03:39:48;38.33;;;14.47;;
21890;SDS011;11110;52.386;16.940;2023-04-21T03:42:19;31.47;;;13.20;;
21890;SDS011;11110;52.386;16.940;2023-04-21T03:44:48;37.23;;;14.47;;
21890;SDS011;11110;52.386;16.940;2023-04-21T03:47:16;39.67;;;14.80;;
21890;SDS011;11110;52.386;16.940;2023-04-21T03:49:45;31.50;;;13.73;;
21890;SDS011;11110;52.386;16.940;2023-04-21T03:52:14;27.80;;;13.30;;
21890;SDS011;11110;52.386;16.940;2023-04-21T03:54:42;38.03;;;13.57;;
21890;SDS011;11110;52.386;16.940;2023-04-21T03:57:11;30.23;;;13.37;;
21890;SDS011;11110;52.386;16.940;2023-04-21T03:59:41;24.27;;;12.07;;
21890;SDS011;11110;52.386;16.940;2023-04-21T04:02:09;38.23;;;13.87;;
21890;SDS011;11110;52.386;16.940;2023-04-21T04:04:38;28.30;;;13.10;;
21890;SDS011;11110;52.386;16.940;2023-04-21T04:07:06;28.37;;;12.80;;
21890;SDS011;11110;52.386;16.940;2023-04-21T04:09:36;34.13;;;13.30;;
21890;SDS011;11110;52.386;16.940;2023-04-21T04:12:04;28.93;;;12.93;;
21890;SDS011;11110;52.386;16.940;2023-04-21T04:14:32;27.37;;;12.63;;
21890;SDS011;11110;52.386;16.940;2023-04-21T04:17:02;34.53;;;13.83;;
21890;SDS011;11110;52.386;16.940;2023-04-21T04:19:31;32.53;;;13.37;;
21890;SDS011;11110;52.386;16.940;2023-04-21T04:21:59;33.27;;;14.93;;
21890;SDS011;11110;52.386;16.940;2023-04-21T04:24:28;36.70;;;13.60;;
21890;SDS011;11110;52.386;16.940;2023-04-21T04:26:59;33.63;;;13.80;;
21890;SDS011;11110;52.386;16.940;2023-04-21T04:29:29;33.03;;;13.43;;
21890;SDS011;11110;52.386;16.940;2023-04-21T04:31:57;37.17;;;13.33;;
21890;SDS011;11110;52.386;16.940;2023-04-21T04:34:29;29.97;;;12.90;;
21890;SDS011;11110;52.386;16.940;2023-04-21T04:37:00;30.43;;;13.53;;
21890;SDS011;11110;52.386;16.940;2023-04-21T04:39:29;33.90;;;14.20;;
21890;SDS011;11110;52.386;16.940;2023-04-21T04:41:57;30.27;;;12.90;;
21890;SDS011;11110;52.386;16.940;2023-04-21T04:44:27;31.47;;;12.10;;
21890;SDS011;11110;52.386;16.940;2023-04-21T04:46:55;26.20;;;11.97;;
21890;SDS011;11110;52.386;16.940;2023-04-21T04:49:24;29.50;;;12.00;;
21890;SDS011;11110;52.386;16.940;2023-04-21T04:51:53;25.53;;;11.13;;
21890;SDS011;11110;52.386;16.940;2023-04-21T04:54:22;32.13;;;12.63;;
21890;SDS011;11110;52.386;16.940;2023-04-21T04:56:51;27.33;;;11.07;;
21890;SDS011;11110;52.386;16.940;2023-04-21T04:59:19;28.00;;;12.40;;
21890;SDS011;11110;52.386;16.940;2023-04-21T05:01:48;32.17;;;12.40;;
21890;SDS011;11110;52.386;16.940;2023-04-21T05:04:17;28.63;;;12.07;;
21890;SDS011;11110;52.386;16.940;2023-04-21T05:06:46;20.73;;;10.23;;
21890;SDS011;11110;52.386;16.940;2023-04-21T05:09:17;32.90;;;12.53;;
21890;SDS011;11110;52.386;16.940;2023-04-21T05:11:45;23.83;;;11.07;;
21890;SDS011;11110;52.386;16.940;2023-04-21T05:14:14;28.80;;;11.40;;
21890;SDS011;11110;52.386;16.940;2023-04-21T05:16:43;27.53;;;10.87;;
21890;SDS011;11110;52.386;16.940;2023-04-21T05:19:11;33.63;;;11.80;;
21890;SDS011;11110;52.386;16.940;2023-04-21T05:21:44;24.27;;;11.00;;
21890;SDS011;11110;52.386;16.940;2023-04-21T05:24:12;26.10;;;10.73;;
21890;SDS011;11110;52.386;16.940;2023-04-21T05:26:42;25.97;;;10.37;;
21890;SDS011;11110;52.386;16.940;2023-04-21T05:29:11;21.03;;;9.87;;
21890;SDS011;11110;52.386;16.940;2023-04-21T05:31:39;29.50;;;11.80;;
21890;SDS011;11110;52.386;16.940;2023-04-21T05:34:08;29.07;;;11.37;;
21890;SDS011;11110;52.386;16.940;2023-04-21T05:36:39;28.20;;;11.10;;
21890;SDS011;11110;52.386;16.940;2023-04-21T05:39:08;27.13;;;11.13;;
21890;SDS011;11110;52.386;16.940;2023-04-21T05:41:36;24.53;;;11.17;;
21890;SDS011;11110;52.386;16.940;2023-04-21T05:44:06;25.67;;;10.77;;
21890;SDS011;11110;52.386;16.940;2023-04-21T05:46:34;31.50;;;11.60;;
21890;SDS011;11110;52.386;16.940;2023-04-21T05:49:03;30.13;;;11.27;;
21890;SDS011;11110;52.386;16.940;2023-04-21T05:51:31;24.30;;;10.43;;
21890;SDS011;11110;52.386;16.940;2023-04-21T05:54:00;29.97;;;11.43;;
21890;SDS011;11110;52.386;16.940;2023-04-21T05:56:28;25.93;;;10.83;;
21890;SDS011;11110;52.386;16.940;2023-04-21T05:58:57;24.53;;;11.20;;
21890;SDS011;11110;52.386;16.940;2023-04-21T06:01:26;31.07;;;11.80;;
21890;SDS011;11110;52.386;16.940;2023-04-21T06:03:55;23.03;;;10.23;;
21890;SDS011;11110;52.386;16.940;2023-04-21T06:06:24;25.33;;;11.40;;
21890;SDS011;11110;52.386;16.940;2023-04-21T06:08:53;29.33;;;11.60;;
21890;SDS011;11110;52.386;16.940;2023-04-21T06:11:21;27.00;;;10.70;;
21890;SDS011;11110;52.386;16.940;2023-04-21T06:13:50;21.30;;;9.90;;
21890;SDS011;11110;52.386;16.940;2023-04-21T06:16:20;25.03;;;10.50;;
21890;SDS011;11110;52.386;16.940;2023-04-21T06:18:50;23.30;;;10.47;;
21890;SDS011;11110;52.386;16.940;2023-04-21T06:21:18;23.43;;;9.83;;
21890;SDS011;11110;52.386;16.940;2023-04-21T06:23:46;26.60;;;10.70;;
21890;SDS011;11110;52.386;16.940;2023-04-21T06:26:15;24.50;;;9.90;;
21890;SDS011;11110;52.386;16.940;2023-04-21T06:28:44;20.37;;;9.30;;
21890;SDS011;11110;52.386;16.940;2023-04-21T06:31:12;30.90;;;11.27;;
21890;SDS011;11110;52.386;16.940;2023-04-21T06:33:41;24.02;;;10.02;;
21890;SDS011;11110;52.386;16.940;2023-04-21T06:36:11;18.87;;;9.33;;
21890;SDS011;11110;52.386;16.940;2023-04-21T06:38:42;20.97;;;8.90;;
21890;SDS011;11110;52.386;16.940;2023-04-21T06:41:10;20.50;;;9.37;;
21890;SDS011;11110;52.386;16.940;2023-04-21T06:43:39;20.53;;;8.83;;
21890;SDS011;11110;52.386;16.940;2023-04-21T06:46:07;23.40;;;10.37;;
21890;SDS011;11110;52.386;16.940;2023-04-21T06:48:36;27.83;;;10.53;;
21890;SDS011;11110;52.386;16.940;2023-04-21T06:51:05;18.47;;;8.47;;
21890;SDS011;11110;52.386;16.940;2023-04-21T06:53:35;20.47;;;9.30;;
21890;SDS011;11110;52.386;16.940;2023-04-21T06:56:04;22.92;;;10.05;;
21890;SDS011;11110;52.386;16.940;2023-04-21T06:58:33;22.93;;;11.30;;
21890;SDS011;11110;52.386;16.940;2023-04-21T07:01:01;22.95;;;9.13;;
21890;SDS011;11110;52.386;16.940;2023-04-21T07:03:30;26.70;;;10.02;;
21890;SDS011;11110;52.386;16.940;2023-04-21T07:05:58;19.88;;;9.40;;
21890;SDS011;11110;52.386;16.940;2023-04-21T07:08:26;22.75;;;9.00;;
21890;SDS011;11110;52.386;16.940;2023-04-21T07:10:56;24.92;;;9.93;;
21890;SDS011;11110;52.386;16.940;2023-04-21T07:13:25;19.83;;;9.02;;
21890;SDS011;11110;52.386;16.940;2023-04-21T07:15:53;19.98;;;8.27;;
21890;SDS011;11110;52.386;16.940;2023-04-21T07:18:22;23.10;;;9.07;;
21890;SDS011;11110;52.386;16.940;2023-04-21T07:20:50;20.23;;;9.80;;
21890;SDS011;11110;52.386;16.940;2023-04-21T07:23:19;20.38;;;8.75;;
21890;SDS011;11110;52.386;16.940;2023-04-21T07:25:47;24.10;;;10.10;;
21890;SDS011;11110;52.386;16.940;2023-04-21T07:28:18;18.48;;;8.57;;
21890;SDS011;11110;52.386;16.940;2023-04-21T07:30:47;16.75;;;8.25;;
21890;SDS011;11110;52.386;16.940;2023-04-21T07:33:16;24.45;;;9.27;;
21890;SDS011;11110;52.386;16.940;2023-04-21T07:35:44;19.98;;;8.98;;
21890;SDS011;11110;52.386;16.940;2023-04-21T07:38:13;20.42;;;9.05;;
21890;SDS011;11110;52.386;16.940;2023-04-21T07:40:41;25.13;;;9.23;;
21890;SDS011;11110;52.386;16.940;2023-04-21T07:43:10;19.65;;;8.57;;
21890;SDS011;11110;52.386;16.940;2023-04-21T07:45:40;16.60;;;8.75;;
21890;SDS011;11110;52.386;16.940;2023-04-21T07:48:09;17.00;;;8.75;;
21890;SDS011;11110;52.386;16.940;2023-04-21T07:50:37;19.95;;;9.18;;
21890;SDS011;11110;52.386;16.940;2023-04-21T07:53:07;19.73;;;8.88;;
21890;SDS011;11110;52.386;16.940;2023-04-21T07:55:35;19.13;;;9.43;;
21890;SDS011;11110;52.386;16.940;2023-04-21T07:58:04;20.08;;;8.93;;
21890;SDS011;11110;52.386;16.940;2023-04-21T08:00:32;20.17;;;8.40;;
21890;SDS011;11110;52.386;16.940;2023-04-21T08:03:02;18.60;;;8.90;;
21890;SDS011;11110;52.386;16.940;2023-04-21T08:05:31;19.90;;;8.77;;
21890;SDS011;11110;52.386;16.940;2023-04-21T08:08:04;16.58;;;8.57;;
21890;SDS011;11110;52.386;16.940;2023-04-21T08:10:33;19.33;;;9.20;;
21890;SDS011;11110;52.386;16.940;2023-04-21T08:13:01;19.27;;;9.50;;
21890;SDS011;11110;52.386;16.940;2023-04-21T08:15:32;21.33;;;9.43;;
21890;SDS011;11110;52.386;16.940;2023-04-21T08:18:02;18.30;;;8.90;;
21890;SDS011;11110;52.386;16.940;2023-04-21T08:20:31;23.45;;;9.18;;
21890;SDS011;11110;52.386;16.940;2023-04-21T08:22:59;18.38;;;8.63;;
21890;SDS011;11110;52.386;16.940;2023-04-21T08:25:28;19.92;;;8.82;;
21890;SDS011;11110;52.386;16.940;2023-04-21T08:27:57;19.95;;;8.32;;
21890;SDS011;11110;52.386;16.940;2023-04-21T08:30:26;16.23;;;7.88;;
21890;SDS011;11110;52.386;16.940;2023-04-21T08:32:55;18.55;;;7.40;;
21890;SDS011;11110;52.386;16.940;2023-04-21T08:35:25;16.30;;;7.30;;
21890;SDS011;11110;52.386;16.940;2023-04-21T08:37:54;14.82;;;7.38;;
21890;SDS011;11110;52.386;16.940;2023-04-21T08:40:24;19.58;;;8.18;;
21890;SDS011;11110;52.386;16.940;2023-04-21T08:43:00;18.42;;;8.20;;
21890;SDS011;11110;52.386;16.940;2023-04-21T08:45:28;16.02;;;7.32;;
21890;SDS011;11110;52.386;16.940;2023-04-21T08:47:58;19.02;;;7.63;;
21890;SDS011;11110;52.386;16.940;2023-04-21T08:50:29;17.35;;;7.55;;
21890;SDS011;11110;52.386;16.940;2023-04-21T08:52:58;15.30;;;7.63;;
21890;SDS011;11110;52.386;16.940;2023-04-21T08:55:27;16.15;;;7.60;;
21890;SDS011;11110;52.386;16.940;2023-04-21T08:57:57;19.20;;;7.10;;
21890;SDS011;11110;52.386;16.940;2023-04-21T09:00:26;24.52;;;8.68;;
21890;SDS011;11110;52.386;16.940;2023-04-21T09:02:55;19.45;;;7.38;;
21890;SDS011;11110;52.386;16.940;2023-04-21T09:05:29;16.25;;;7.15;;
21890;SDS011;11110;52.386;16.940;2023-04-21T09:08:07;19.08;;;7.57;;
21890;SDS011;11110;52.386;16.940;2023-04-21T09:10:42;17.55;;;6.85;;
21890;SDS011;11110;52.386;16.940;2023-04-21T09:13:12;15.60;;;6.53;;
21890;SDS011;11110;52.386;16.940;2023-04-21T09:15:41;17.48;;;7.18;;
21890;SDS011;11110;52.386;16.940;2023-04-21T09:18:12;15.18;;;6.70;;
21890;SDS011;11110;52.386;16.940;2023-04-21T09:20:44;17.77;;;6.60;;
21890;SDS011;11110;52.386;16.940;2023-04-21T09:23:14;18.83;;;6.68;;
21890;SDS011;11110;52.386;16.940;2023-04-21T09:25:43;15.68;;;6.40;;
21890;SDS011;11110;52.386;16.940;2023-04-21T09:28:12;16.13;;;6.53;;
21890;SDS011;11110;52.386;16.940;2023-04-21T09:30:41;16.10;;;6.18;;
21890;SDS011;11110;52.386;16.940;2023-04-21T09:33:13;11.88;;;5.53;;
21890;SDS011;11110;52.386;16.940;2023-04-21T09:35:59;17.23;;;6.78;;
21890;SDS011;11110;52.386;16.940;2023-04-21T09:38:29;19.20;;;6.60;;
21890;SDS011;11110;52.386;16.940;2023-04-21T09:41:00;17.23;;;6.90;;
21890;SDS011;11110;52.386;16.940;2023-04-21T09:43:29;17.70;;;6.72;;
21890;SDS011;11110;52.386;16.940;2023-04-21T09:45:57;15.35;;;6.65;;
21890;SDS011;11110;52.386;16.940;2023-04-21T09:48:29;16.33;;;7.07;;
21890;SDS011;11110;52.386;16.940;2023-04-21T09:51:01;15.75;;;6.53;;
21890;SDS011;11110;52.386;16.940;2023-04-21T09:53:35;13.35;;;5.32;;
21890;SDS011;11110;52.386;16.940;2023-04-21T09:56:06;21.67;;;7.55;;
21890;SDS011;11110;52.386;16.940;2023-04-21T09:58:40;14.45;;;6.07;;
21890;SDS011;11110;52.386;16.940;2023-04-21T10:01:13;13.40;;;6.25;;
21890;SDS011;11110;52.386;16.940;2023-04-21T10:03:43;15.57;;;6.78;;
21890;SDS011;11110;52.386;16.940;2023-04-21T10:06:14;14.05;;;6.32;;
21890;SDS011;11110;52.386;16.940;2023-04-21T10:08:42;15.45;;;5.90;;
21890;SDS011;11110;52.386;16.940;2023-04-21T10:11:12;19.02;;;7.05;;
21890;SDS011;11110;52.386;16.940;2023-04-21T10:13:41;18.02;;;7.00;;
21890;SDS011;11110;52.386;16.940;2023-04-21T10:16:10;14.77;;;6.47;;
21890;SDS011;11110;52.386;16.940;2023-04-21T10:18:41;20.17;;;7.68;;
21890;SDS011;11110;52.386;16.940;2023-04-21T10:21:11;11.70;;;5.82;;
21890;SDS011;11110;52.386;16.940;2023-04-21T10:23:45;16.08;;;7.38;;
21890;SDS011;11110;52.386;16.940;2023-04-21T10:26:16;15.18;;;6.90;;
21890;SDS011;11110;52.386;16.940;2023-04-21T10:28:47;13.90;;;6.40;;
21890;SDS011;11110;52.386;16.940;2023-04-21T10:31:24;13.38;;;6.53;;
21890;SDS011;11110;52.386;16.940;2023-04-21T10:36:49;15.50;;;6.80;;
21890;SDS011;11110;52.386;16.940;2023-04-21T10:39:35;14.20;;;6.65;;
21890;SDS011;11110;52.386;16.940;2023-04-21T10:42:18;18.20;;;6.85;;
21890;SDS011;11110;52.386;16.940;2023-04-21T10:45:01;13.27;;;5.90;;
21890;SDS011;11110;52.386;16.940;2023-04-21T10:47:40;15.77;;;5.70;;
21890;SDS011;11110;52.386;16.940;2023-04-21T10:50:12;13.35;;;6.60;;
21890;SDS011;11110;52.386;16.940;2023-04-21T10:52:48;15.80;;;7.10;;
21890;SDS011;11110;52.386;16.940;2023-04-21T10:55:25;14.07;;;6.10;;
21890;SDS011;11110;52.386;16.940;2023-04-21T10:57:56;10.82;;;5.90;;
21890;SDS011;11110;52.386;16.940;2023-04-21T11:00:28;11.10;;;6.03;;
21890;SDS011;11110;52.386;16.940;2023-04-21T11:02:57;14.32;;;6.43;;
21890;SDS011;11110;52.386;16.940;2023-04-21T11:05:28;13.40;;;6.78;;
21890;SDS011;11110;52.386;16.940;2023-04-21T11:08:03;13.23;;;6.40;;
21890;SDS011;11110;52.386;16.940;2023-04-21T11:10:45;12.55;;;6.32;;
21890;SDS011;11110;52.386;16.940;2023-04-21T11:13:16;15.40;;;6.80;;
21890;SDS011;11110;52.386;16.940;2023-04-21T11:15:57;12.57;;;6.38;;
21890;SDS011;11110;52.386;16.940;2023-04-21T11:18:33;15.07;;;6.80;;
21890;SDS011;11110;52.386;16.940;2023-04-21T11:21:09;12.55;;;6.15;;
21890;SDS011;11110;52.386;16.940;2023-04-21T11:23:50;16.55;;;6.82;;
21890;SDS011;11110;52.386;16.940;2023-04-21T11:26:29;14.38;;;6.38;;
21890;SDS011;11110;52.386;16.940;2023-04-21T11:29:00;11.05;;;5.72;;
21890;SDS011;11110;52.386;16.940;2023-04-21T11:31:29;13.98;;;6.07;;
21890;SDS011;11110;52.386;16.940;2023-04-21T11:33:58;13.70;;;5.88;;
21890;SDS011;11110;52.386;16.940;2023-04-21T11:36:27;11.30;;;5.93;;
21890;SDS011;11110;52.386;16.940;2023-04-21T11:38:55;13.38;;;5.72;;
21890;SDS011;11110;52.386;16.940;2023-04-21T11:41:25;13.27;;;5.78;;
21890;SDS011;11110;52.386;16.940;2023-04-21T11:43:54;10.18;;;5.40;;
21890;SDS011;11110;52.386;16.940;2023-04-21T11:46:24;16.63;;;6.55;;
21890;SDS011;11110;52.386;16.940;2023-04-21T11:48:57;14.20;;;6.78;;
21890;SDS011;11110;52.386;16.940;2023-04-21T11:51:31;22.00;;;7.50;;
21890;SDS011;11110;52.386;16.940;2023-04-21T11:54:00;14.93;;;6.22;;
21890;SDS011;11110;52.386;16.940;2023-04-21T11:56:33;11.68;;;6.07;;
21890;SDS011;11110;52.386;16.940;2023-04-21T11:59:06;13.70;;;6.28;;
21890;SDS011;11110;52.386;16.940;2023-04-21T12:01:41;10.25;;;5.55;;
21890;SDS011;11110;52.386;16.940;2023-04-21T12:04:12;12.23;;;5.85;;
21890;SDS011;11110;52.386;16.940;2023-04-21T12:06:43;12.35;;;5.80;;
21890;SDS011;11110;52.386;16.940;2023-04-21T12:09:15;10.40;;;5.43;;
21890;SDS011;11110;52.386;16.940;2023-04-21T12:11:46;14.18;;;6.47;;
21890;SDS011;11110;52.386;16.940;2023-04-21T12:14:17;14.73;;;6.25;;
21890;SDS011;11110;52.386;16.940;2023-04-21T12:16:47;11.57;;;5.60;;
21890;SDS011;11110;52.386;16.940;2023-04-21T12:19:22;12.98;;;5.75;;
21890;SDS011;11110;52.386;16.940;2023-04-21T12:21:52;13.27;;;6.05;;
21890;SDS011;11110;52.386;16.940;2023-04-21T12:24:22;11.20;;;5.20;;
21890;SDS011;11110;52.386;16.940;2023-04-21T12:26:52;11.77;;;5.60;;
21890;SDS011;11110;52.386;16.940;2023-04-21T12:29:22;11.35;;;5.30;;
21890;SDS011;11110;52.386;16.940;2023-04-21T12:31:51;7.38;;;5.18;;
21890;SDS011;11110;52.386;16.940;2023-04-21T12:34:19;11.32;;;5.53;;
21890;SDS011;11110;52.386;16.940;2023-04-21T12:36:48;11.07;;;5.57;;
21890;SDS011;11110;52.386;16.940;2023-04-21T12:39:16;13.07;;;5.70;;
21890;SDS011;11110;52.386;16.940;2023-04-21T12:41:45;9.25;;;5.07;;
21890;SDS011;11110;52.386;16.940;2023-04-21T12:44:14;10.90;;;5.43;;
21890;SDS011;11110;52.386;16.940;2023-04-21T12:46:44;10.98;;;5.68;;
21890;SDS011;11110;52.386;16.940;2023-04-21T12:49:14;11.52;;;5.35;;
21890;SDS011;11110;52.386;16.940;2023-04-21T12:51:43;13.32;;;5.40;;
21890;SDS011;11110;52.386;16.940;2023-04-21T12:54:12;12.13;;;5.72;;
21890;SDS011;11110;52.386;16.940;2023-04-21T12:56:41;8.90;;;5.18;;
21890;SDS011;11110;52.386;16.940;2023-04-21T12:59:10;11.93;;;5.75;;
21890;SDS011;11110;52.386;16.940;2023-04-21T13:01:39;12.55;;;6.10;;
21890;SDS011;11110;52.386;16.940;2023-04-21T13:04:09;10.73;;;5.75;;
21890;SDS011;11110;52.386;16.940;2023-04-21T13:06:39;11.68;;;6.15;;
21890;SDS011;11110;52.386;16.940;2023-04-21T13:09:07;11.40;;;6.53;;
21890;SDS011;11110;52.386;16.940;2023-04-21T13:11:35;12.32;;;5.43;;
21890;SDS011;11110;52.386;16.940;2023-04-21T13:14:04;9.57;;;5.15;;
21890;SDS011;11110;52.386;16.940;2023-04-21T13:16:33;10.38;;;5.72;;
21890;SDS011;11110;52.386;16.940;2023-04-21T13:19:02;9.27;;;5.45;;
21890;SDS011;11110;52.386;16.940;2023-04-21T13:21:32;10.50;;;5.28;;
21890;SDS011;11110;52.386;16.940;2023-04-21T13:24:01;12.32;;;5.80;;
21890;SDS011;11110;52.386;16.940;2023-04-21T13:26:32;14.18;;;6.50;;
21890;SDS011;11110;52.386;16.940;2023-04-21T13:29:01;9.35;;;5.07;;
21890;SDS011;11110;52.386;16.940;2023-04-21T13:31:31;10.52;;;5.90;;
21890;SDS011;11110;52.386;16.940;2023-04-21T13:33:59;11.95;;;5.53;;
21890;SDS011;11110;52.386;16.940;2023-04-21T13:36:33;13.10;;;5.57;;
21890;SDS011;11110;52.386;16.940;2023-04-21T13:39:01;9.98;;;5.47;;
21890;SDS011;11110;52.386;16.940;2023-04-21T13:41:31;10.60;;;5.50;;
21890;SDS011;11110;52.386;16.940;2023-04-21T13:44:00;11.48;;;5.22;;
21890;SDS011;11110;52.386;16.940;2023-04-21T13:46:29;10.43;;;4.78;;
21890;SDS011;11110;52.386;16.940;2023-04-21T13:48:57;9.57;;;4.97;;
21890;SDS011;11110;52.386;16.940;2023-04-21T13:51:26;9.85;;;5.30;;
21890;SDS011;11110;52.386;16.940;2023-04-21T13:53:57;8.50;;;4.97;;
21890;SDS011;11110;52.386;16.940;2023-04-21T13:56:26;10.98;;;5.43;;
21890;SDS011;11110;52.386;16.940;2023-04-21T13:58:54;12.18;;;5.07;;
21890;SDS011;11110;52.386;16.940;2023-04-21T14:01:24;9.30;;;5.03;;
21890;SDS011;11110;52.386;16.940;2023-04-21T14:03:53;12.27;;;4.95;;
21890;SDS011;11110;52.386;16.940;2023-04-21T14:06:22;7.45;;;4.40;;
21890;SDS011;11110;52.386;16.940;2023-04-21T14:08:52;10.93;;;5.20;;
21890;SDS011;11110;52.386;16.940;2023-04-21T14:11:22;14.50;;;6.43;;
21890;SDS011;11110;52.386;16.940;2023-04-21T14:13:50;9.52;;;4.63;;
21890;SDS011;11110;52.386;16.940;2023-04-21T14:16:25;10.88;;;4.63;;
21890;SDS011;11110;52.386;16.940;2023-04-21T14:18:54;9.07;;;4.55;;
21890;SDS011;11110;52.386;16.940;2023-04-21T14:21:22;11.80;;;5.60;;
21890;SDS011;11110;52.386;16.940;2023-04-21T14:23:51;9.80;;;4.75;;
21890;SDS011;11110;52.386;16.940;2023-04-21T14:26:19;10.77;;;5.00;;
21890;SDS011;11110;52.386;16.940;2023-04-21T14:28:49;9.35;;;5.00;;
21890;SDS011;11110;52.386;16.940;2023-04-21T14:31:17;8.35;;;4.53;;
21890;SDS011;11110;52.386;16.940;2023-04-21T14:33:48;11.73;;;5.00;;